x

West Santa Barbara 38 Nm West Of Santa Barbara, Ca (46054) Wave Buoy

10:50 - Wed 28th Sep 2016 All times are PDT. -7 hours from GMT.

  • Sig Wave height 4.6ft
  • Swell Direction
  • Peak Period 9s
  • Average Period 7s
  • Wind
    4mph
  • Sea Temp 63°f
  • Aire Temp 61°f
  • Sea Pressure 1013.8mb
  • West Santa Barbara  38 Nm West Of Santa Barbara, Ca
  • West Santa Barbara  38 Nm West Of Santa Barbara, Ca

More Historic Weather Station data

Upgrade to MSW Pro to gain access to the past 30 days of data for over 8000 Wavebouys and Weather Stations around the globe.

Join Pro

Comparision Forecast

View Surf forecast
   
mié 09/28 10:50 4.5ft 9s 7s 4
mph
1013.8mb 63f 61f
9:50 5ft 8s 7s 7 9 mph 1013.6mb 62f 60f
8:50 5ft 9s 7s 9
mph
1013.4mb 62f 59f
7:50 5ft 9s 7s 9 11 mph 1012.8mb 62f 59f
6:50 4.5ft 9s 7s 9 11 mph 1012.2mb 62f 60f
5:50 4.5ft 9s 6s 9 11 mph 1012mb 62f 61f
4:50 4.5ft 10s 7s 11 13 mph 1011.4mb 62f 63f
3:50 4.5ft 10s 7s 11 13 mph 1011.4mb 62f 64f
2:50 4.5ft 10s 7s 11 13 mph 1011.7mb 63f 64f
1:50 4ft 11s 7s 9 11 mph 1011.6mb 62f 64f
12:50 4.5ft 10s 7s 4 7 mph 1011.7mb 62f 64f
mar 09/27 11:50 4ft 10s 6s 4
mph
1011.8mb 62f 65f
10:50 4ft 11s 6s 2 4 mph 1011.7mb 62f 64f
9:50 4.5ft 11s 7s 4 7 mph 1011.4mb 63f 64f
8:50 3.5ft 11s 7s 4 7 mph 1011.1mb 64f 65f
7:50 4ft 11s 8s 7
mph
1010.3mb 65f 66f
6:50 3.5ft 9s 8s 4 7 mph 1010.2mb 66f 68f
5:50 3.5ft 9s 8s 2 4 mph 1010.3mb 66f 70f
4:50 3.5ft 10s 8s 7 9 mph 1010.2mb 67f 70f
3:50 3.5ft 11s 8s 4 7 mph 1010.1mb 67f 70f
2:50 3.5ft 10s 8s 7 9 mph 1010mb 67f 71f
1:50 3.5ft 9s 8s  -  2 mph 1010.1mb 65f 69f
12:50 3.5ft 10s 8s 7 9 mph 1010.2mb 65f 68f
11:50 3.5ft 10s 7s 4 7 mph 1010.5mb 64f 70f
10:50 3.5ft 10s 7s 7 9 mph 1010.7mb 63f 69f
9:50 3.5ft 11s 7s 7 11 mph 1010.7mb 63f 73f
8:50 3.5ft 10s 7s 2 4 mph 1010.4mb 62f 71f
7:50 3.5ft 11s 7s 9 11 mph 1009.9mb 62f 71f
6:50 3.5ft 10s 7s 11 13 mph 1009.8mb 62f 71f
5:50 3.5ft 11s 7s 9
mph
1009.9mb 62f 68f
4:50 3.5ft 14s 7s 11 13 mph 1010mb 62f 71f
3:50 3.5ft 15s 7s 11
mph
1010.2mb 62f 71f
2:50 3ft 14s 8s 9 11 mph 1010.7mb 62f 68f
1:50 3ft 15s 7s 11 13 mph 1011.2mb 62f 68f
12:50 3ft 14s 8s 13
mph
1011.4mb 63f 70f
lun 09/26 11:50 2.5ft 15s 7s 9 11 mph 1011.9mb 63f 71f
10:50 3.5ft 14s 8s 9 11 mph 1011.8mb 63f 71f
9:50 3.5ft 15s 7s 9 11 mph 1011.9mb 62f 71f
8:50 3.5ft 8s 6s 11
mph
1011.9mb 62f 71f
7:50 3.5ft 15s 7s 16 18 mph 1011.5mb 63f 71f
6:50 4ft 15s 8s 13 16 mph 1011.4mb 64f 73f
5:50 3.5ft 15s 7s 13
mph
1011.5mb 64f 71f
4:50 3.5ft 15s 7s 9
mph
1011.7mb 66f 71f
3:50 3.5ft 15s 7s 11
mph
1012.2mb 65f 70f
2:50 3.5ft 9s 8s 7 9 mph 1012.5mb 68f 78f
1:50 3.5ft 15s 8s 4
mph
1013.2mb 66f 82f
12:50 4ft 15s 8s 2
mph
1013.7mb 64f 77f
11:50 4ft 8s 8s 2 4 mph 1014.1mb 63f 75f
10:50 4ft 8s 8s 9 11 mph 1014.4mb 62f 77f
9:50 3.5ft 15s 8s 11
mph
1014.4mb 62f 71f
8:50 4ft 10s 8s 9
mph
1014.2mb 61f 72f
7:50 4.5ft 8s 8s 2 4 mph 1014mb 60f 68f
6:50 4.5ft 16s 8s 7 9 mph 1013.3mb 60f 66f
5:50 4.5ft 15s 8s 7
mph
1012.9mb 61f 67f
4:50 4.5ft 8s 8s 7
mph
1012.7mb 61f 65f
3:50 4.5ft 15s 8s 4 9 mph 1012.9mb 61f 64f
2:50 4ft 10s 7s 7 9 mph 1012.9mb 61f 64f
1:50 5ft 10s 8s 13 16 mph 1013mb 61f 64f
12:50 5ft 16s 8s 11 13 mph 1013.4mb 61f 65f
dom 09/25 11:50 5ft 16s 8s 11 13 mph 1013.9mb 61f 65f
10:50 5.5ft 9s 7s 13 16 mph 1013.9mb 61f 66f
9:50 6ft 10s 7s 9 11 mph 1014.5mb 61f 65f
8:50 5ft 10s 7s 13
mph
1014.1mb 61f 66f
7:50 5ft 8s 7s 9 11 mph 1013.8mb 61f 67f
6:50 6ft 8s 7s 9 11 mph 1013.7mb 62f 68f
5:50 6ft 15s 8s 11 13 mph 1013.6mb 62f 67f
4:50 6ft 15s 8s 9 11 mph 1013.9mb 62f 65f
3:50 6ft 10s 8s 9 11 mph 1014.5mb 62f 65f
2:50 5ft 15s 7s 7 9 mph 1014.9mb 64f 67f
1:50 5ft 11s 7s 7
mph
1015.5mb 63f 69f
12:50 5ft 11s 8s 4 7 mph 1016.2mb 63f 69f
11:50 5ft 16s 8s 2
mph
1016.6mb 62f 66f
10:50 5.5ft 16s 8s 4
mph
1016.7mb 61f 64f
9:50 6ft 11s 8s 2 4 mph 1016.6mb 60f 63f
8:50 6ft 11s 8s 4 7 mph 1016.3mb 60f 62f
7:50 5.5ft 11s 8s 7 9 mph 1016mb 59f 62f
6:50 5ft 16s 8s 7 9 mph 1015.2mb 59f 62f
5:50 5ft 16s 8s 4 7 mph 1014.6mb 59f 62f
4:50 4.5ft 16s 7s 2 4 mph 1014mb 59f 61f
3:50 5ft 16s 7s 4
mph
1014.2mb 59f 61f
2:50 4.5ft 16s 7s 4
mph
1014.5mb 59f 61f
1:50 5ft 16s 7s 9
mph
1014.6mb 59f 61f
12:50 4.5ft 10s 6s 11
mph
1014.8mb 60f 61f
sáb 09/24 11:50 5ft 16s 6s 13 16 mph 1014.9mb 60f 61f
10:50 5ft 16s 6s 16 18 mph 1014.8mb 60f 62f
9:50 5ft 7s 6s 16 20 mph 1014.9mb 60f 62f
8:50 5.5ft 16s 6s 16 20 mph 1015.1mb 60f 62f
7:50 5.5ft 16s 6s 18 20 mph 1014.7mb 60f 63f